sensor_id;sensor_type;location;lat;lon;timestamp;P1;durP1;ratioP1;P2;durP2;ratioP2
8480;SDS011;4277;51.354;6.740;2024-01-15T00:02:07;40.63;;;19.13;;
8480;SDS011;4277;51.354;6.740;2024-01-15T00:04:37;40.17;;;21.27;;
8480;SDS011;4277;51.354;6.740;2024-01-15T00:07:03;41.43;;;21.30;;
8480;SDS011;4277;51.354;6.740;2024-01-15T00:09:29;40.17;;;20.90;;
8480;SDS011;4277;51.354;6.740;2024-01-15T00:11:55;38.60;;;20.57;;
8480;SDS011;4277;51.354;6.740;2024-01-15T00:14:22;42.63;;;21.63;;
8480;SDS011;4277;51.354;6.740;2024-01-15T00:16:48;38.07;;;19.90;;
8480;SDS011;4277;51.354;6.740;2024-01-15T00:19:16;39.60;;;21.00;;
8480;SDS011;4277;51.354;6.740;2024-01-15T00:21:42;38.97;;;21.27;;
8480;SDS011;4277;51.354;6.740;2024-01-15T00:24:08;40.67;;;20.80;;
8480;SDS011;4277;51.354;6.740;2024-01-15T00:26:34;37.73;;;20.93;;
8480;SDS011;4277;51.354;6.740;2024-01-15T00:29:00;38.93;;;21.10;;
8480;SDS011;4277;51.354;6.740;2024-01-15T00:31:26;39.93;;;20.83;;
8480;SDS011;4277;51.354;6.740;2024-01-15T00:33:54;41.00;;;21.20;;
8480;SDS011;4277;51.354;6.740;2024-01-15T00:36:20;35.80;;;19.07;;
8480;SDS011;4277;51.354;6.740;2024-01-15T00:38:46;36.47;;;20.00;;
8480;SDS011;4277;51.354;6.740;2024-01-15T00:41:13;39.07;;;20.07;;
8480;SDS011;4277;51.354;6.740;2024-01-15T00:43:39;39.23;;;20.33;;
8480;SDS011;4277;51.354;6.740;2024-01-15T00:46:05;34.47;;;18.93;;
8480;SDS011;4277;51.354;6.740;2024-01-15T00:48:32;32.13;;;18.40;;
8480;SDS011;4277;51.354;6.740;2024-01-15T00:50:58;37.43;;;19.43;;
8480;SDS011;4277;51.354;6.740;2024-01-15T00:53:25;34.90;;;20.10;;
8480;SDS011;4277;51.354;6.740;2024-01-15T00:55:51;39.17;;;21.10;;
8480;SDS011;4277;51.354;6.740;2024-01-15T00:58:18;35.17;;;20.40;;
8480;SDS011;4277;51.354;6.740;2024-01-15T01:00:44;37.27;;;20.63;;
8480;SDS011;4277;51.354;6.740;2024-01-15T01:03:10;38.97;;;21.03;;
8480;SDS011;4277;51.354;6.740;2024-01-15T01:05:37;39.63;;;21.63;;
8480;SDS011;4277;51.354;6.740;2024-01-15T01:08:03;36.20;;;20.10;;
8480;SDS011;4277;51.354;6.740;2024-01-15T01:10:29;35.87;;;19.73;;
8480;SDS011;4277;51.354;6.740;2024-01-15T01:12:55;35.37;;;20.73;;
8480;SDS011;4277;51.354;6.740;2024-01-15T01:15:21;34.33;;;20.27;;
8480;SDS011;4277;51.354;6.740;2024-01-15T01:17:47;35.27;;;19.20;;
8480;SDS011;4277;51.354;6.740;2024-01-15T01:20:13;37.50;;;20.50;;
8480;SDS011;4277;51.354;6.740;2024-01-15T01:22:40;35.40;;;19.97;;
8480;SDS011;4277;51.354;6.740;2024-01-15T01:25:06;36.03;;;21.20;;
8480;SDS011;4277;51.354;6.740;2024-01-15T01:27:32;36.80;;;20.67;;
8480;SDS011;4277;51.354;6.740;2024-01-15T01:29:58;36.67;;;20.30;;
8480;SDS011;4277;51.354;6.740;2024-01-15T01:32:24;40.17;;;20.67;;
8480;SDS011;4277;51.354;6.740;2024-01-15T01:34:50;34.73;;;19.93;;
8480;SDS011;4277;51.354;6.740;2024-01-15T01:37:16;34.10;;;19.30;;
8480;SDS011;4277;51.354;6.740;2024-01-15T01:39:42;36.13;;;19.93;;
8480;SDS011;4277;51.354;6.740;2024-01-15T01:42:08;35.73;;;19.60;;
8480;SDS011;4277;51.354;6.740;2024-01-15T01:44:34;37.93;;;20.70;;
8480;SDS011;4277;51.354;6.740;2024-01-15T01:47:00;34.73;;;18.57;;
8480;SDS011;4277;51.354;6.740;2024-01-15T01:49:26;33.13;;;18.53;;
8480;SDS011;4277;51.354;6.740;2024-01-15T01:51:53;32.63;;;18.03;;
8480;SDS011;4277;51.354;6.740;2024-01-15T01:54:22;31.13;;;18.33;;
8480;SDS011;4277;51.354;6.740;2024-01-15T01:56:47;33.10;;;17.47;;
8480;SDS011;4277;51.354;6.740;2024-01-15T01:59:14;30.80;;;17.33;;
8480;SDS011;4277;51.354;6.740;2024-01-15T02:01:40;35.03;;;17.70;;
8480;SDS011;4277;51.354;6.740;2024-01-15T02:04:07;32.43;;;18.27;;
8480;SDS011;4277;51.354;6.740;2024-01-15T02:06:33;34.50;;;17.40;;
8480;SDS011;4277;51.354;6.740;2024-01-15T02:08:59;29.67;;;17.00;;
8480;SDS011;4277;51.354;6.740;2024-01-15T02:11:25;30.00;;;16.13;;
8480;SDS011;4277;51.354;6.740;2024-01-15T02:13:51;32.57;;;17.30;;
8480;SDS011;4277;51.354;6.740;2024-01-15T02:16:17;30.30;;;16.93;;
8480;SDS011;4277;51.354;6.740;2024-01-15T02:18:44;31.77;;;17.27;;
8480;SDS011;4277;51.354;6.740;2024-01-15T02:21:10;30.07;;;17.07;;
8480;SDS011;4277;51.354;6.740;2024-01-15T02:23:36;30.27;;;15.40;;
8480;SDS011;4277;51.354;6.740;2024-01-15T02:26:02;27.23;;;15.60;;
8480;SDS011;4277;51.354;6.740;2024-01-15T02:28:29;27.60;;;16.50;;
8480;SDS011;4277;51.354;6.740;2024-01-15T02:30:55;20.23;;;11.53;;
8480;SDS011;4277;51.354;6.740;2024-01-15T02:33:22;26.97;;;15.23;;
8480;SDS011;4277;51.354;6.740;2024-01-15T02:35:47;28.83;;;16.50;;
8480;SDS011;4277;51.354;6.740;2024-01-15T02:38:15;25.07;;;13.87;;
8480;SDS011;4277;51.354;6.740;2024-01-15T02:40:41;22.07;;;13.77;;
8480;SDS011;4277;51.354;6.740;2024-01-15T02:43:07;22.27;;;12.10;;
8480;SDS011;4277;51.354;6.740;2024-01-15T02:45:33;25.60;;;13.33;;
8480;SDS011;4277;51.354;6.740;2024-01-15T02:47:59;24.97;;;14.10;;
8480;SDS011;4277;51.354;6.740;2024-01-15T02:50:25;25.33;;;14.10;;
8480;SDS011;4277;51.354;6.740;2024-01-15T02:52:51;23.23;;;13.63;;
8480;SDS011;4277;51.354;6.740;2024-01-15T02:55:17;25.57;;;12.87;;
8480;SDS011;4277;51.354;6.740;2024-01-15T02:57:43;22.20;;;13.03;;
8480;SDS011;4277;51.354;6.740;2024-01-15T03:00:09;24.80;;;12.33;;
8480;SDS011;4277;51.354;6.740;2024-01-15T03:02:38;20.87;;;11.73;;
8480;SDS011;4277;51.354;6.740;2024-01-15T03:05:05;21.60;;;12.43;;
8480;SDS011;4277;51.354;6.740;2024-01-15T03:07:32;23.23;;;13.20;;
8480;SDS011;4277;51.354;6.740;2024-01-15T03:09:58;21.53;;;12.47;;
8480;SDS011;4277;51.354;6.740;2024-01-15T03:12:24;21.23;;;13.13;;
8480;SDS011;4277;51.354;6.740;2024-01-15T03:14:50;22.57;;;12.93;;
8480;SDS011;4277;51.354;6.740;2024-01-15T03:17:16;23.43;;;13.57;;
8480;SDS011;4277;51.354;6.740;2024-01-15T03:19:42;21.67;;;12.37;;
8480;SDS011;4277;51.354;6.740;2024-01-15T03:22:08;21.13;;;13.40;;
8480;SDS011;4277;51.354;6.740;2024-01-15T03:24:34;23.77;;;13.07;;
8480;SDS011;4277;51.354;6.740;2024-01-15T03:27:00;21.90;;;13.27;;
8480;SDS011;4277;51.354;6.740;2024-01-15T03:29:26;23.03;;;14.47;;
8480;SDS011;4277;51.354;6.740;2024-01-15T03:31:52;21.60;;;14.13;;
8480;SDS011;4277;51.354;6.740;2024-01-15T03:34:18;22.90;;;13.77;;
8480;SDS011;4277;51.354;6.740;2024-01-15T03:36:44;22.57;;;14.10;;
8480;SDS011;4277;51.354;6.740;2024-01-15T03:39:10;22.43;;;15.17;;
8480;SDS011;4277;51.354;6.740;2024-01-15T03:41:36;25.10;;;14.33;;
8480;SDS011;4277;51.354;6.740;2024-01-15T03:44:02;24.30;;;14.23;;
8480;SDS011;4277;51.354;6.740;2024-01-15T03:46:28;25.10;;;14.07;;
8480;SDS011;4277;51.354;6.740;2024-01-15T03:48:54;23.93;;;13.50;;
8480;SDS011;4277;51.354;6.740;2024-01-15T03:51:20;22.57;;;14.00;;
8480;SDS011;4277;51.354;6.740;2024-01-15T03:53:46;26.67;;;14.50;;
8480;SDS011;4277;51.354;6.740;2024-01-15T03:56:12;20.27;;;13.77;;
8480;SDS011;4277;51.354;6.740;2024-01-15T03:58:38;23.23;;;13.87;;
8480;SDS011;4277;51.354;6.740;2024-01-15T04:01:07;24.03;;;13.10;;
8480;SDS011;4277;51.354;6.740;2024-01-15T04:03:33;20.00;;;13.43;;
8480;SDS011;4277;51.354;6.740;2024-01-15T04:05:59;22.07;;;13.33;;
8480;SDS011;4277;51.354;6.740;2024-01-15T04:08:25;22.33;;;14.17;;
8480;SDS011;4277;51.354;6.740;2024-01-15T04:10:51;22.23;;;14.17;;
8480;SDS011;4277;51.354;6.740;2024-01-15T04:13:17;21.23;;;13.77;;
8480;SDS011;4277;51.354;6.740;2024-01-15T04:15:43;20.33;;;13.83;;
8480;SDS011;4277;51.354;6.740;2024-01-15T04:18:09;24.87;;;13.87;;
8480;SDS011;4277;51.354;6.740;2024-01-15T04:20:35;22.90;;;14.03;;
8480;SDS011;4277;51.354;6.740;2024-01-15T04:23:01;23.93;;;14.23;;
8480;SDS011;4277;51.354;6.740;2024-01-15T04:25:27;22.43;;;13.90;;
8480;SDS011;4277;51.354;6.740;2024-01-15T04:27:52;22.47;;;13.63;;
8480;SDS011;4277;51.354;6.740;2024-01-15T04:30:18;18.90;;;12.83;;
8480;SDS011;4277;51.354;6.740;2024-01-15T04:32:44;22.83;;;13.50;;
8480;SDS011;4277;51.354;6.740;2024-01-15T04:35:10;22.50;;;13.40;;
8480;SDS011;4277;51.354;6.740;2024-01-15T04:37:37;23.93;;;13.13;;
8480;SDS011;4277;51.354;6.740;2024-01-15T04:40:03;23.33;;;13.27;;
8480;SDS011;4277;51.354;6.740;2024-01-15T04:42:29;21.53;;;13.67;;
8480;SDS011;4277;51.354;6.740;2024-01-15T04:44:55;20.20;;;13.00;;
8480;SDS011;4277;51.354;6.740;2024-01-15T04:47:21;21.73;;;13.60;;
8480;SDS011;4277;51.354;6.740;2024-01-15T04:49:47;18.70;;;12.20;;
8480;SDS011;4277;51.354;6.740;2024-01-15T04:52:14;19.10;;;12.57;;
8480;SDS011;4277;51.354;6.740;2024-01-15T04:54:40;17.97;;;11.63;;
8480;SDS011;4277;51.354;6.740;2024-01-15T04:57:06;17.50;;;10.60;;
8480;SDS011;4277;51.354;6.740;2024-01-15T04:59:31;19.63;;;11.43;;
8480;SDS011;4277;51.354;6.740;2024-01-15T05:01:57;19.33;;;11.40;;
8480;SDS011;4277;51.354;6.740;2024-01-15T05:04:23;16.50;;;11.20;;
8480;SDS011;4277;51.354;6.740;2024-01-15T05:06:53;16.10;;;11.30;;
8480;SDS011;4277;51.354;6.740;2024-01-15T05:09:19;17.00;;;11.10;;
8480;SDS011;4277;51.354;6.740;2024-01-15T05:11:45;15.73;;;10.90;;
8480;SDS011;4277;51.354;6.740;2024-01-15T05:14:11;18.90;;;11.40;;
8480;SDS011;4277;51.354;6.740;2024-01-15T05:16:44;18.10;;;11.50;;
8480;SDS011;4277;51.354;6.740;2024-01-15T05:19:12;16.40;;;11.37;;
8480;SDS011;4277;51.354;6.740;2024-01-15T05:21:38;18.53;;;10.77;;
8480;SDS011;4277;51.354;6.740;2024-01-15T05:24:04;19.70;;;11.23;;
8480;SDS011;4277;51.354;6.740;2024-01-15T05:26:30;19.57;;;10.80;;
8480;SDS011;4277;51.354;6.740;2024-01-15T05:28:56;19.03;;;11.53;;
8480;SDS011;4277;51.354;6.740;2024-01-15T05:31:22;20.03;;;11.97;;
8480;SDS011;4277;51.354;6.740;2024-01-15T05:33:48;19.67;;;10.87;;
8480;SDS011;4277;51.354;6.740;2024-01-15T05:36:14;20.73;;;12.10;;
8480;SDS011;4277;51.354;6.740;2024-01-15T05:38:40;18.77;;;12.03;;
8480;SDS011;4277;51.354;6.740;2024-01-15T05:41:06;19.00;;;10.90;;
8480;SDS011;4277;51.354;6.740;2024-01-15T05:43:32;17.50;;;11.00;;
8480;SDS011;4277;51.354;6.740;2024-01-15T05:45:58;17.03;;;9.77;;
8480;SDS011;4277;51.354;6.740;2024-01-15T05:48:24;16.80;;;10.33;;
8480;SDS011;4277;51.354;6.740;2024-01-15T05:50:50;15.57;;;10.10;;
8480;SDS011;4277;51.354;6.740;2024-01-15T05:53:16;14.17;;;9.00;;
8480;SDS011;4277;51.354;6.740;2024-01-15T05:55:42;17.00;;;10.23;;
8480;SDS011;4277;51.354;6.740;2024-01-15T05:58:09;17.83;;;9.77;;
8480;SDS011;4277;51.354;6.740;2024-01-15T06:00:35;15.33;;;9.20;;
8480;SDS011;4277;51.354;6.740;2024-01-15T06:03:03;12.97;;;8.37;;
8480;SDS011;4277;51.354;6.740;2024-01-15T06:05:29;17.73;;;7.63;;
8480;SDS011;4277;51.354;6.740;2024-01-15T06:07:55;13.70;;;8.83;;
8480;SDS011;4277;51.354;6.740;2024-01-15T06:10:21;14.17;;;8.93;;
8480;SDS011;4277;51.354;6.740;2024-01-15T06:12:47;15.53;;;9.07;;
8480;SDS011;4277;51.354;6.740;2024-01-15T06:15:13;15.07;;;9.37;;
8480;SDS011;4277;51.354;6.740;2024-01-15T06:17:39;14.27;;;9.57;;
8480;SDS011;4277;51.354;6.740;2024-01-15T06:20:06;12.67;;;8.73;;
8480;SDS011;4277;51.354;6.740;2024-01-15T06:22:32;12.90;;;7.97;;
8480;SDS011;4277;51.354;6.740;2024-01-15T06:24:58;13.17;;;8.80;;
8480;SDS011;4277;51.354;6.740;2024-01-15T06:27:24;12.57;;;8.33;;
8480;SDS011;4277;51.354;6.740;2024-01-15T06:29:50;11.30;;;7.77;;
8480;SDS011;4277;51.354;6.740;2024-01-15T06:32:17;11.03;;;8.33;;
8480;SDS011;4277;51.354;6.740;2024-01-15T06:34:43;11.87;;;8.07;;
8480;SDS011;4277;51.354;6.740;2024-01-15T06:37:09;11.70;;;7.60;;
8480;SDS011;4277;51.354;6.740;2024-01-15T06:39:35;11.63;;;8.07;;
8480;SDS011;4277;51.354;6.740;2024-01-15T06:42:01;10.50;;;7.03;;
8480;SDS011;4277;51.354;6.740;2024-01-15T06:44:27;13.57;;;6.70;;
8480;SDS011;4277;51.354;6.740;2024-01-15T06:46:53;10.70;;;6.93;;
8480;SDS011;4277;51.354;6.740;2024-01-15T06:49:22;10.60;;;6.63;;
8480;SDS011;4277;51.354;6.740;2024-01-15T06:51:48;8.23;;;6.03;;
8480;SDS011;4277;51.354;6.740;2024-01-15T06:54:14;9.97;;;5.73;;
8480;SDS011;4277;51.354;6.740;2024-01-15T06:56:40;8.20;;;5.40;;
8480;SDS011;4277;51.354;6.740;2024-01-15T06:59:06;8.80;;;4.93;;
8480;SDS011;4277;51.354;6.740;2024-01-15T07:01:32;7.10;;;4.73;;
8480;SDS011;4277;51.354;6.740;2024-01-15T07:03:58;7.17;;;4.97;;
8480;SDS011;4277;51.354;6.740;2024-01-15T07:06:24;6.53;;;4.40;;
8480;SDS011;4277;51.354;6.740;2024-01-15T07:08:50;6.43;;;4.63;;
8480;SDS011;4277;51.354;6.740;2024-01-15T07:11:16;8.33;;;5.20;;
8480;SDS011;4277;51.354;6.740;2024-01-15T07:13:43;7.80;;;4.90;;
8480;SDS011;4277;51.354;6.740;2024-01-15T07:16:09;10.00;;;5.97;;
8480;SDS011;4277;51.354;6.740;2024-01-15T07:18:34;9.40;;;5.80;;
8480;SDS011;4277;51.354;6.740;2024-01-15T07:21:01;9.03;;;6.67;;
8480;SDS011;4277;51.354;6.740;2024-01-15T07:23:28;9.53;;;6.67;;
8480;SDS011;4277;51.354;6.740;2024-01-15T07:25:54;14.17;;;8.23;;
8480;SDS011;4277;51.354;6.740;2024-01-15T07:28:20;11.03;;;8.50;;
8480;SDS011;4277;51.354;6.740;2024-01-15T07:30:46;12.63;;;10.00;;
8480;SDS011;4277;51.354;6.740;2024-01-15T07:33:12;17.90;;;10.70;;
8480;SDS011;4277;51.354;6.740;2024-01-15T07:35:38;17.17;;;11.30;;
8480;SDS011;4277;51.354;6.740;2024-01-15T07:38:04;18.30;;;12.60;;
8480;SDS011;4277;51.354;6.740;2024-01-15T07:40:30;18.73;;;11.77;;
8480;SDS011;4277;51.354;6.740;2024-01-15T07:42:56;18.47;;;11.77;;
8480;SDS011;4277;51.354;6.740;2024-01-15T07:45:23;19.47;;;11.50;;
8480;SDS011;4277;51.354;6.740;2024-01-15T07:47:49;17.07;;;12.03;;
8480;SDS011;4277;51.354;6.740;2024-01-15T07:50:15;16.03;;;11.87;;
8480;SDS011;4277;51.354;6.740;2024-01-15T07:52:41;17.80;;;11.17;;
8480;SDS011;4277;51.354;6.740;2024-01-15T07:55:07;18.90;;;11.10;;
8480;SDS011;4277;51.354;6.740;2024-01-15T07:57:33;17.70;;;11.73;;
8480;SDS011;4277;51.354;6.740;2024-01-15T08:00:00;15.53;;;10.90;;
8480;SDS011;4277;51.354;6.740;2024-01-15T08:02:28;16.23;;;11.63;;
8480;SDS011;4277;51.354;6.740;2024-01-15T08:04:54;13.17;;;10.87;;
8480;SDS011;4277;51.354;6.740;2024-01-15T08:07:20;17.23;;;10.97;;
8480;SDS011;4277;51.354;6.740;2024-01-15T08:09:46;13.83;;;10.17;;
8480;SDS011;4277;51.354;6.740;2024-01-15T08:12:13;15.10;;;10.53;;
8480;SDS011;4277;51.354;6.740;2024-01-15T08:14:40;14.93;;;10.57;;
8480;SDS011;4277;51.354;6.740;2024-01-15T08:17:06;13.20;;;9.73;;
8480;SDS011;4277;51.354;6.740;2024-01-15T08:19:31;11.43;;;8.97;;
8480;SDS011;4277;51.354;6.740;2024-01-15T08:21:57;12.73;;;9.00;;
8480;SDS011;4277;51.354;6.740;2024-01-15T08:24:23;12.33;;;9.23;;
8480;SDS011;4277;51.354;6.740;2024-01-15T08:26:49;11.83;;;8.70;;
8480;SDS011;4277;51.354;6.740;2024-01-15T08:29:15;11.33;;;7.47;;
8480;SDS011;4277;51.354;6.740;2024-01-15T08:31:43;10.13;;;8.23;;
8480;SDS011;4277;51.354;6.740;2024-01-15T08:34:09;11.37;;;8.07;;
8480;SDS011;4277;51.354;6.740;2024-01-15T08:36:35;10.87;;;8.30;;
8480;SDS011;4277;51.354;6.740;2024-01-15T08:39:01;10.50;;;8.20;;
8480;SDS011;4277;51.354;6.740;2024-01-15T08:41:29;10.07;;;8.03;;
8480;SDS011;4277;51.354;6.740;2024-01-15T08:43:54;10.00;;;7.73;;
8480;SDS011;4277;51.354;6.740;2024-01-15T08:46:20;10.17;;;8.10;;
8480;SDS011;4277;51.354;6.740;2024-01-15T08:48:46;11.50;;;8.40;;
8480;SDS011;4277;51.354;6.740;2024-01-15T08:51:12;8.60;;;7.57;;
8480;SDS011;4277;51.354;6.740;2024-01-15T08:53:38;8.60;;;7.30;;
8480;SDS011;4277;51.354;6.740;2024-01-15T08:56:04;10.80;;;7.90;;
8480;SDS011;4277;51.354;6.740;2024-01-15T08:58:31;8.63;;;7.17;;
8480;SDS011;4277;51.354;6.740;2024-01-15T09:00:57;8.70;;;7.23;;
8480;SDS011;4277;51.354;6.740;2024-01-15T09:03:22;9.93;;;7.23;;
8480;SDS011;4277;51.354;6.740;2024-01-15T09:05:48;7.13;;;6.10;;
8480;SDS011;4277;51.354;6.740;2024-01-15T09:08:15;8.03;;;6.80;;
8480;SDS011;4277;51.354;6.740;2024-01-15T09:10:41;7.17;;;6.27;;
8480;SDS011;4277;51.354;6.740;2024-01-15T09:13:06;7.03;;;6.00;;
8480;SDS011;4277;51.354;6.740;2024-01-15T09:15:33;7.10;;;6.00;;
8480;SDS011;4277;51.354;6.740;2024-01-15T09:17:59;6.87;;;5.97;;
8480;SDS011;4277;51.354;6.740;2024-01-15T09:20:27;7.37;;;6.13;;
8480;SDS011;4277;51.354;6.740;2024-01-15T09:22:53;6.17;;;5.57;;
8480;SDS011;4277;51.354;6.740;2024-01-15T09:25:19;8.73;;;5.70;;
8480;SDS011;4277;51.354;6.740;2024-01-15T09:27:45;6.73;;;5.27;;
8480;SDS011;4277;51.354;6.740;2024-01-15T09:30:11;6.97;;;5.77;;
8480;SDS011;4277;51.354;6.740;2024-01-15T09:32:37;5.80;;;5.20;;
8480;SDS011;4277;51.354;6.740;2024-01-15T09:35:03;7.40;;;5.67;;
8480;SDS011;4277;51.354;6.740;2024-01-15T09:37:29;6.90;;;5.40;;
8480;SDS011;4277;51.354;6.740;2024-01-15T09:39:55;6.27;;;5.20;;
8480;SDS011;4277;51.354;6.740;2024-01-15T09:42:21;7.63;;;5.07;;
8480;SDS011;4277;51.354;6.740;2024-01-15T09:44:48;7.00;;;5.30;;
8480;SDS011;4277;51.354;6.740;2024-01-15T09:47:14;8.87;;;4.70;;
8480;SDS011;4277;51.354;6.740;2024-01-15T09:49:41;6.10;;;4.87;;
8480;SDS011;4277;51.354;6.740;2024-01-15T09:52:07;5.40;;;4.77;;
8480;SDS011;4277;51.354;6.740;2024-01-15T09:54:33;5.70;;;4.30;;
8480;SDS011;4277;51.354;6.740;2024-01-15T09:57:00;5.53;;;4.90;;
8480;SDS011;4277;51.354;6.740;2024-01-15T09:59:26;6.03;;;4.67;;
8480;SDS011;4277;51.354;6.740;2024-01-15T10:01:52;5.93;;;5.10;;
8480;SDS011;4277;51.354;6.740;2024-01-15T10:04:19;6.17;;;4.67;;
8480;SDS011;4277;51.354;6.740;2024-01-15T10:06:45;5.23;;;4.73;;
8480;SDS011;4277;51.354;6.740;2024-01-15T10:09:12;5.40;;;4.83;;
8480;SDS011;4277;51.354;6.740;2024-01-15T10:11:42;5.60;;;5.00;;
8480;SDS011;4277;51.354;6.740;2024-01-15T10:14:11;5.97;;;4.80;;
8480;SDS011;4277;51.354;6.740;2024-01-15T10:16:37;6.00;;;4.73;;
8480;SDS011;4277;51.354;6.740;2024-01-15T10:19:04;5.47;;;4.47;;
8480;SDS011;4277;51.354;6.740;2024-01-15T10:21:31;5.13;;;4.63;;
8480;SDS011;4277;51.354;6.740;2024-01-15T10:23:59;6.87;;;5.13;;
8480;SDS011;4277;51.354;6.740;2024-01-15T10:26:25;7.50;;;4.47;;
8480;SDS011;4277;51.354;6.740;2024-01-15T10:28:52;6.13;;;5.33;;
8480;SDS011;4277;51.354;6.740;2024-01-15T10:31:18;7.47;;;5.10;;
8480;SDS011;4277;51.354;6.740;2024-01-15T10:33:47;8.07;;;5.30;;
8480;SDS011;4277;51.354;6.740;2024-01-15T10:36:13;6.57;;;4.93;;
8480;SDS011;4277;51.354;6.740;2024-01-15T10:38:39;5.63;;;4.80;;
8480;SDS011;4277;51.354;6.740;2024-01-15T10:41:05;6.67;;;4.77;;
8480;SDS011;4277;51.354;6.740;2024-01-15T10:43:31;5.87;;;5.27;;
8480;SDS011;4277;51.354;6.740;2024-01-15T10:45:58;6.07;;;5.43;;
8480;SDS011;4277;51.354;6.740;2024-01-15T10:48:25;7.00;;;5.67;;
8480;SDS011;4277;51.354;6.740;2024-01-15T10:50:53;5.93;;;5.33;;
8480;SDS011;4277;51.354;6.740;2024-01-15T10:53:19;5.90;;;5.10;;
8480;SDS011;4277;51.354;6.740;2024-01-15T10:55:46;6.10;;;5.30;;
8480;SDS011;4277;51.354;6.740;2024-01-15T10:58:13;5.57;;;4.97;;
8480;SDS011;4277;51.354;6.740;2024-01-15T11:00:40;5.57;;;4.27;;
8480;SDS011;4277;51.354;6.740;2024-01-15T11:03:06;5.40;;;4.77;;
8480;SDS011;4277;51.354;6.740;2024-01-15T11:05:40;5.03;;;4.27;;
8480;SDS011;4277;51.354;6.740;2024-01-15T11:08:07;4.63;;;4.17;;
8480;SDS011;4277;51.354;6.740;2024-01-15T11:10:40;4.67;;;4.27;;
8480;SDS011;4277;51.354;6.740;2024-01-15T11:13:19;5.53;;;4.47;;
8480;SDS011;4277;51.354;6.740;2024-01-15T11:16:01;4.80;;;4.30;;
8480;SDS011;4277;51.354;6.740;2024-01-15T11:18:28;6.07;;;4.10;;
8480;SDS011;4277;51.354;6.740;2024-01-15T11:24:02;5.07;;;4.07;;
8480;SDS011;4277;51.354;6.740;2024-01-15T11:26:43;4.80;;;3.80;;
8480;SDS011;4277;51.354;6.740;2024-01-15T11:32:09;6.57;;;3.50;;
8480;SDS011;4277;51.354;6.740;2024-01-15T11:40:20;5.60;;;2.60;;
8480;SDS011;4277;51.354;6.740;2024-01-15T11:42:46;5.77;;;2.60;;
8480;SDS011;4277;51.354;6.740;2024-01-15T11:45:16;5.97;;;2.47;;
8480;SDS011;4277;51.354;6.740;2024-01-15T11:47:54;5.60;;;2.57;;
8480;SDS011;4277;51.354;6.740;2024-01-15T11:50:21;4.37;;;2.30;;
8480;SDS011;4277;51.354;6.740;2024-01-15T11:52:51;4.20;;;2.63;;
8480;SDS011;4277;51.354;6.740;2024-01-15T11:55:22;4.80;;;2.40;;
8480;SDS011;4277;51.354;6.740;2024-01-15T11:57:52;4.23;;;2.03;;
8480;SDS011;4277;51.354;6.740;2024-01-15T12:00:22;3.97;;;2.43;;
8480;SDS011;4277;51.354;6.740;2024-01-15T12:02:49;5.70;;;2.50;;
8480;SDS011;4277;51.354;6.740;2024-01-15T12:05:16;5.40;;;3.00;;
8480;SDS011;4277;51.354;6.740;2024-01-15T12:07:43;4.57;;;2.60;;
8480;SDS011;4277;51.354;6.740;2024-01-15T12:10:09;4.73;;;2.50;;
8480;SDS011;4277;51.354;6.740;2024-01-15T12:15:09;4.23;;;2.33;;
8480;SDS011;4277;51.354;6.740;2024-01-15T12:17:35;4.50;;;2.70;;
8480;SDS011;4277;51.354;6.740;2024-01-15T12:20:03;3.07;;;2.30;;
8480;SDS011;4277;51.354;6.740;2024-01-15T12:22:29;2.93;;;2.63;;
8480;SDS011;4277;51.354;6.740;2024-01-15T12:24:55;6.37;;;2.80;;
8480;SDS011;4277;51.354;6.740;2024-01-15T12:27:22;7.10;;;2.80;;
8480;SDS011;4277;51.354;6.740;2024-01-15T12:29:48;7.27;;;2.83;;
8480;SDS011;4277;51.354;6.740;2024-01-15T12:32:14;5.30;;;2.70;;
8480;SDS011;4277;51.354;6.740;2024-01-15T12:34:40;6.23;;;3.00;;
8480;SDS011;4277;51.354;6.740;2024-01-15T12:37:07;5.53;;;2.80;;
8480;SDS011;4277;51.354;6.740;2024-01-15T12:39:35;4.27;;;2.77;;
8480;SDS011;4277;51.354;6.740;2024-01-15T12:42:02;6.27;;;3.00;;
8480;SDS011;4277;51.354;6.740;2024-01-15T12:44:28;6.33;;;3.37;;
8480;SDS011;4277;51.354;6.740;2024-01-15T12:46:54;6.23;;;3.43;;
8480;SDS011;4277;51.354;6.740;2024-01-15T12:49:21;6.10;;;3.57;;
8480;SDS011;4277;51.354;6.740;2024-01-15T12:51:53;5.47;;;3.40;;
8480;SDS011;4277;51.354;6.740;2024-01-15T12:54:20;5.93;;;3.40;;
8480;SDS011;4277;51.354;6.740;2024-01-15T12:56:46;5.63;;;3.23;;
8480;SDS011;4277;51.354;6.740;2024-01-15T12:59:12;4.70;;;3.73;;
8480;SDS011;4277;51.354;6.740;2024-01-15T13:01:38;5.77;;;4.20;;
8480;SDS011;4277;51.354;6.740;2024-01-15T13:04:05;6.80;;;4.10;;
8480;SDS011;4277;51.354;6.740;2024-01-15T13:06:33;6.70;;;4.80;;
8480;SDS011;4277;51.354;6.740;2024-01-15T13:08:59;8.23;;;4.70;;
8480;SDS011;4277;51.354;6.740;2024-01-15T13:11:25;7.87;;;4.20;;
8480;SDS011;4277;51.354;6.740;2024-01-15T13:13:51;6.97;;;4.13;;
8480;SDS011;4277;51.354;6.740;2024-01-15T13:16:17;6.77;;;4.27;;
8480;SDS011;4277;51.354;6.740;2024-01-15T13:18:45;6.30;;;4.43;;
8480;SDS011;4277;51.354;6.740;2024-01-15T13:21:11;7.17;;;4.80;;
8480;SDS011;4277;51.354;6.740;2024-01-15T13:23:37;8.20;;;4.60;;
8480;SDS011;4277;51.354;6.740;2024-01-15T13:26:04;5.93;;;4.30;;
8480;SDS011;4277;51.354;6.740;2024-01-15T13:28:30;7.23;;;4.67;;
8480;SDS011;4277;51.354;6.740;2024-01-15T13:30:56;6.33;;;4.13;;
8480;SDS011;4277;51.354;6.740;2024-01-15T13:33:22;6.23;;;4.10;;
8480;SDS011;4277;51.354;6.740;2024-01-15T13:35:48;6.93;;;3.57;;
8480;SDS011;4277;51.354;6.740;2024-01-15T13:38:15;4.10;;;3.70;;
8480;SDS011;4277;51.354;6.740;2024-01-15T13:40:41;3.80;;;3.17;;
8480;SDS011;4277;51.354;6.740;2024-01-15T13:43:07;4.20;;;3.17;;
8480;SDS011;4277;51.354;6.740;2024-01-15T13:45:36;4.53;;;3.23;;
8480;SDS011;4277;51.354;6.740;2024-01-15T13:48:02;3.93;;;2.77;;
8480;SDS011;4277;51.354;6.740;2024-01-15T13:50:31;3.00;;;2.50;;
8480;SDS011;4277;51.354;6.740;2024-01-15T13:52:57;2.67;;;2.40;;
8480;SDS011;4277;51.354;6.740;2024-01-15T13:55:23;4.40;;;2.20;;
8480;SDS011;4277;51.354;6.740;2024-01-15T13:57:49;4.10;;;2.30;;
8480;SDS011;4277;51.354;6.740;2024-01-15T14:00:15;2.50;;;2.23;;
8480;SDS011;4277;51.354;6.740;2024-01-15T14:02:44;3.37;;;2.30;;
8480;SDS011;4277;51.354;6.740;2024-01-15T14:05:11;2.57;;;2.00;;
8480;SDS011;4277;51.354;6.740;2024-01-15T14:07:38;2.57;;;2.10;;
8480;SDS011;4277;51.354;6.740;2024-01-15T14:10:04;2.13;;;1.93;;
8480;SDS011;4277;51.354;6.740;2024-01-15T14:12:30;3.40;;;1.90;;
8480;SDS011;4277;51.354;6.740;2024-01-15T14:14:57;4.47;;;1.87;;
8480;SDS011;4277;51.354;6.740;2024-01-15T14:17:23;2.27;;;1.70;;
8480;SDS011;4277;51.354;6.740;2024-01-15T14:19:49;2.07;;;1.50;;
8480;SDS011;4277;51.354;6.740;2024-01-15T14:22:15;1.70;;;1.60;;
8480;SDS011;4277;51.354;6.740;2024-01-15T14:24:41;1.90;;;1.80;;
8480;SDS011;4277;51.354;6.740;2024-01-15T14:27:06;3.63;;;1.70;;
8480;SDS011;4277;51.354;6.740;2024-01-15T14:29:33;2.90;;;1.77;;
8480;SDS011;4277;51.354;6.740;2024-01-15T14:32:00;1.77;;;1.40;;
8480;SDS011;4277;51.354;6.740;2024-01-15T14:34:26;1.60;;;1.50;;
8480;SDS011;4277;51.354;6.740;2024-01-15T14:36:52;2.30;;;1.80;;
8480;SDS011;4277;51.354;6.740;2024-01-15T14:39:19;2.00;;;1.80;;
8480;SDS011;4277;51.354;6.740;2024-01-15T14:41:45;2.30;;;2.10;;
8480;SDS011;4277;51.354;6.740;2024-01-15T14:44:11;1.93;;;1.70;;
8480;SDS011;4277;51.354;6.740;2024-01-15T14:46:38;3.20;;;2.10;;
8480;SDS011;4277;51.354;6.740;2024-01-15T14:49:03;3.00;;;2.30;;
8480;SDS011;4277;51.354;6.740;2024-01-15T14:51:29;5.10;;;2.53;;
8480;SDS011;4277;51.354;6.740;2024-01-15T14:53:56;2.63;;;2.40;;
8480;SDS011;4277;51.354;6.740;2024-01-15T14:56:22;2.40;;;2.20;;
8480;SDS011;4277;51.354;6.740;2024-01-15T14:58:48;3.37;;;1.90;;
8480;SDS011;4277;51.354;6.740;2024-01-15T15:01:13;5.17;;;2.37;;
8480;SDS011;4277;51.354;6.740;2024-01-15T15:03:40;2.77;;;2.00;;
8480;SDS011;4277;51.354;6.740;2024-01-15T15:06:06;4.90;;;2.03;;
8480;SDS011;4277;51.354;6.740;2024-01-15T15:08:35;3.20;;;1.90;;
8480;SDS011;4277;51.354;6.740;2024-01-15T15:11:01;1.90;;;1.60;;